Terminal Aerodrome Forecast
Issued by NWS

Home | Current Version | Previous Version | Text Only | Print | Product List | Glossary On
Versions: 1 2 3 4 5 6 7 8 9 10 11 12 13 14 15 16 17 18 19 20 21 22 23 24 25 26 27 28 29 30 31 32 33 34 35 36 37 38 39 40 41 42 43 44 45 46 47 48 49 50
451
FTUS45 KBOU 152336
TAFAPA
TAF
KAPA 152336Z 1600/1624 35004KT 3SM -SN BR SCT012 OVC025
      TEMPO 1600/1604 1SM -SN BR BKN012
     FM160400 32004KT 2SM -SN BR BKN009 OVC016
      TEMPO 1605/1609 3/4SM -SN BR BKN005
     FM160900 34008KT 2SM -SN BR OVC010
      TEMPO 1609/1613 3/4SM -SN BR BKN004
     FM161300 34010KT P6SM VCSH SCT010 OVC020
     FM162100 33010KT P6SM FEW035 SCT070 BKN120=

USA.gov is the U.S. government's official web portal to all federal, state and local government web resources and services.